Weather at Griffith Field

Public forecast

Using degrees Fahrenheit for public forecast. Weather courtesy of forecast.io.

Closest aviation weather report (METAR) to Griffith Field

Closest report is Russell Municipal Airport, 39.6 nm (73.3 km) SSW. Retrieved 2020/10/30 12:53 UTC (39 minutes ago):

KRSL 301253Z AUTO 24007KT 10SM CLR 02/M01 A3016 RMK AO2 SLP227 T00221006

Closest aviation forecast (TAF) to Griffith Field

Closest forecast is Russell Municipal Airport, 39.6 nm (73.3 km) SSW. Retrieved 2020/10/30 12:30 UTC (1 hour ago):

TAF KRSL 301127Z 3012/3112 VRB06KT P6SM FEW250 FM302100 20010KT P6SM FEW250 FM310500 18015KT P6SM SCT250 WS020/21040KT